^^
Saratoga-Weather Station Historical Data
Daily Summary for February 27, 2021 Units:  English    Metric   Both
Daily Weekly Monthly Yearly Custom
  High: Low: Average:
Temperature: 49.6 °F 35.6 °F 41.9 °F
Dew Point: 38.1 °F 32.7 °F 35.4 °F
Humidity: 90% 58% 78%
Wind Speed: 9mph 0mph 2.1mph
Wind Gust: 14mph - -
Wind- - SSE
Pressure: 30.7 in 30.6 in -
Precipitation: 0 in    
Historical Graphs
 
 
Tabular Data for February 27, 2021
Time Temperature Dew Point Pressure Wind Wind Speed Wind Gust Humidity Rainfall Rate (Hourly) solar
00:02 37.8 °F 34.5 °F 30.6 in Calm     88% 0 in 0 W/m2
00:07 37.8 °F 34.5 °F 30.6 in Calm     88% 0 in 0 W/m2
00:12 37.6 °F 34.3 °F 30.6 in Calm     88% 0 in 0 W/m2
00:17 37.6 °F 34.3 °F 30.6 in Calm     88% 0 in 0 W/m2
00:27 37.2 °F 34 °F 30.6 in Calm   1 mph 88% 0 in 0 W/m2
00:32 37.6 °F 34.3 °F 30.6 in Calm   1 mph 88% 0 in 0 W/m2
00:37 37.8 °F 34.5 °F 30.6 in Calm   1 mph 88% 0 in 0 W/m2
00:42 37.8 °F 34.5 °F 30.6 in NE 0.9 mph 1 mph 88% 0 in 0 W/m2
00:47 37.8 °F 34.5 °F 30.6 in SE 0.9 mph 2 mph 88% 0 in 0 W/m2
00:52 37.8 °F 34.2 °F 30.6 in SSE 0.9 mph 2 mph 87% 0 in 0 W/m2
00:57 37.6 °F 34 °F 30.6 in SSE 0.9 mph 2 mph 87% 0 in 0 W/m2
01:02 37.4 °F 33.8 °F 30.6 in SSE 0.9 mph 2 mph 87% 0 in 0 W/m2
01:07 37.6 °F 34.3 °F 30.6 in NW 0.9 mph 2 mph 88% 0 in 0 W/m2
01:12 37.6 °F 34 °F 30.6 in WNW 2.9 mph 3 mph 87% 0 in 0 W/m2
01:17 37.8 °F 34.2 °F 30.6 in NW 2 mph 2 mph 87% 0 in 0 W/m2
01:22 37.9 °F 34.3 °F 30.6 in NW 0.9 mph 3 mph 87% 0 in 0 W/m2
01:27 37.9 °F 34.2 °F 30.6 in NW 0.9 mph 2 mph 86% 0 in 0 W/m2
01:32 37.9 °F 34.2 °F 30.6 in NNW 2.9 mph 4 mph 86% 0 in 0 W/m2
01:37 38.1 °F 34.3 °F 30.6 in NW 2 mph 6 mph 86% 0 in 0 W/m2
01:42 38.5 °F 34.3 °F 30.6 in WNW 2.9 mph 3 mph 85% 0 in 0 W/m2
01:47 38.5 °F 34.3 °F 30.6 in WNW 4 mph 4 mph 85% 0 in 0 W/m2
01:52 38.5 °F 34.2 °F 30.6 in WNW 2 mph 4 mph 84% 0 in 0 W/m2
01:57 38.5 °F 34.3 °F 30.6 in Calm   3 mph 85% 0 in 0 W/m2
02:02 38.7 °F 34.2 °F 30.6 in West 2 mph 4 mph 84% 0 in 0 W/m2
02:07 38.7 °F 34.2 °F 30.6 in North 0.9 mph 6 mph 84% 0 in 0 W/m2
02:12 38.7 °F 34.2 °F 30.6 in NNW 2.9 mph 3 mph 84% 0 in 0 W/m2
02:17 38.5 °F 34.2 °F 30.6 in NW 2 mph 6 mph 84% 0 in 0 W/m2
02:22 38.5 °F 34.2 °F 30.6 in North 2.9 mph 6 mph 84% 0 in 0 W/m2
02:27 38.5 °F 34.2 °F 30.6 in West 2 mph 2 mph 84% 0 in 0 W/m2
02:32 38.5 °F 34.2 °F 30.6 in WNW 2 mph 6 mph 84% 0 in 0 W/m2
02:37 38.5 °F 34.3 °F 30.6 in WNW 0.9 mph 5 mph 85% 0 in 0 W/m2
02:42 38.5 °F 34.2 °F 30.6 in WNW 0.9 mph 3 mph 84% 0 in 0 W/m2
02:47 38.7 °F 34.2 °F 30.6 in NW 0.9 mph 5 mph 84% 0 in 0 W/m2
02:52 38.5 °F 34.2 °F 30.6 in East 2 mph 5 mph 84% 0 in 0 W/m2
02:57 38.5 °F 34.2 °F 30.6 in NW 0.9 mph 2 mph 84% 0 in 0 W/m2
03:02 38.5 °F 34.2 °F 30.6 in WNW 2 mph 5 mph 84% 0 in 0 W/m2
03:07 38.5 °F 34.3 °F 30.6 in NW 2 mph 4 mph 85% 0 in 0 W/m2
03:12 38.5 °F 34.3 °F 30.6 in WNW 2 mph 5 mph 85% 0 in 0 W/m2
03:17 38.5 °F 34.2 °F 30.6 in WNW 4 mph 5 mph 84% 0 in 0 W/m2
03:22 38.5 °F 34.2 °F 30.6 in West 2 mph 2 mph 84% 0 in 0 W/m2
03:27 38.5 °F 34.3 °F 30.6 in WSW 2 mph 3 mph 85% 0 in 0 W/m2
03:37 38.5 °F 34.3 °F 30.6 in WNW 4 mph 4 mph 85% 0 in 0 W/m2
03:42 38.5 °F 34.3 °F 30.6 in ENE 2 mph 5 mph 85% 0 in 0 W/m2
03:47 38.5 °F 34.3 °F 30.6 in WNW 2.9 mph 4 mph 85% 0 in 0 W/m2
03:52 38.5 °F 34.3 °F 30.6 in NNW 2 mph 3 mph 85% 0 in 0 W/m2
03:57 38.3 °F 34.2 °F 30.6 in West 4 mph 6 mph 85% 0 in 0 W/m2
04:02 38.3 °F 34.2 °F 30.6 in WSW 0.9 mph 7 mph 85% 0 in 0 W/m2
04:07 38.1 °F 34 °F 30.6 in WNW 2.9 mph 6 mph 85% 0 in 0 W/m2
04:12 38.1 °F 34 °F 30.6 in WNW 2.9 mph 4 mph 85% 0 in 0 W/m2
04:17 37.9 °F 33.8 °F 30.6 in WNW 2.9 mph 4 mph 85% 0 in 0 W/m2
04:22 37.9 °F 34.2 °F 30.6 in West 2 mph 7 mph 86% 0 in 0 W/m2
04:27 37.8 °F 34 °F 30.6 in WNW 2 mph 4 mph 86% 0 in 0 W/m2
04:32 37.8 °F 34 °F 30.6 in West 2.9 mph 7 mph 86% 0 in 0 W/m2
04:37 37.8 °F 34 °F 30.6 in WNW 4 mph 4 mph 86% 0 in 0 W/m2
04:42 37.8 °F 34 °F 30.6 in NNW 2.9 mph 8 mph 86% 0 in 0 W/m2
04:47 37.8 °F 34 °F 30.6 in WNW 2 mph 7 mph 86% 0 in 0 W/m2
04:52 37.6 °F 33.8 °F 30.6 in WNW 2.9 mph 4 mph 86% 0 in 0 W/m2
04:57 37.4 °F 33.8 °F 30.6 in WSW 4 mph 5 mph 87% 0 in 0 W/m2
05:02 37.2 °F 33.8 °F 30.6 in WNW 2 mph 4 mph 87% 0 in 0 W/m2
05:07 37.2 °F 33.8 °F 30.6 in Calm   2 mph 87% 0 in 0 W/m2
05:12 37 °F 33.6 °F 30.6 in West 0.9 mph 4 mph 87% 0 in 0 W/m2
05:17 36.9 °F 33.4 °F 30.6 in Calm   2 mph 87% 0 in 0 W/m2
05:22 36.7 °F 33.3 °F 30.6 in West 2 mph 3 mph 87% 0 in 0 W/m2
05:27 36.3 °F 33.1 °F 30.6 in Calm   2 mph 88% 0 in 0 W/m2
05:32 36.1 °F 32.9 °F 30.6 in Calm   2 mph 88% 0 in 0 W/m2
05:37 36 °F 32.7 °F 30.6 in WNW 0.9 mph 1 mph 88% 0 in 0 W/m2
05:42 35.8 °F 32.9 °F 30.6 in WSW 0.9 mph 1 mph 89% 0 in 0 W/m2
05:47 35.8 °F 32.9 °F 30.6 in Calm   5 mph 89% 0 in 0 W/m2
05:52 35.8 °F 33.1 °F 30.6 in Calm   2 mph 90% 0 in 0 W/m2
05:57 35.8 °F 33.1 °F 30.6 in ESE 0.9 mph 5 mph 90% 0 in 0 W/m2
06:02 36 °F 33.3 °F 30.6 in ENE 0.9 mph 5 mph 90% 0 in 0 W/m2
06:07 36 °F 33.3 °F 30.6 in Calm   2 mph 90% 0 in 0 W/m2
06:12 36 °F 33.3 °F 30.6 in NNW 0.9 mph 5 mph 90% 0 in 0 W/m2
06:17 36 °F 33.3 °F 30.6 in West 2.9 mph 4 mph 90% 0 in 0 W/m2
06:22 36 °F 33.3 °F 30.6 in Calm   2 mph 90% 0 in 0 W/m2
06:27 36 °F 33.3 °F 30.6 in ENE 2 mph 3 mph 90% 0 in 0 W/m2
06:32 36 °F 33.1 °F 30.6 in NW 0.9 mph 2 mph 89% 0 in 0 W/m2
06:37 36 °F 33.1 °F 30.6 in Calm   2 mph 89% 0 in 0 W/m2
06:42 36 °F 33.1 °F 30.6 in NNW 2 mph 2 mph 89% 0 in 0 W/m2
06:52 35.8 °F 32.9 °F 30.6 in Calm   3 mph 89% 0 in 0 W/m2
06:57 36 °F 33.1 °F 30.6 in WNW 0.9 mph 3 mph 89% 0 in 0 W/m2
07:02 36 °F 33.3 °F 30.6 in NNE 0.9 mph 3 mph 90% 0 in 0 W/m2
07:07 36 °F 33.3 °F 30.6 in North 2.9 mph 5 mph 90% 0 in 0 W/m2
07:13 36 °F 33.3 °F 30.6 in North 0.9 mph 5 mph 90% 0 in 0 W/m2
07:18 35.8 °F 32.9 °F 30.6 in East 0.9 mph 3 mph 89% 0 in 0 W/m2
07:23 35.8 °F 32.9 °F 30.6 in Calm   5 mph 89% 0 in 0 W/m2
07:28 35.8 °F 33.1 °F 30.6 in SE 0.9 mph 7 mph 90% 0 in 5 W/m2
07:33 35.8 °F 32.9 °F 30.6 in East 0.9 mph 3 mph 89% 0 in 9 W/m2
07:38 35.8 °F 33.1 °F 30.6 in Calm   6 mph 90% 0 in 12 W/m2
07:43 35.6 °F 32.7 °F 30.6 in NNE 0.9 mph 4 mph 89% 0 in 14 W/m2
07:48 35.6 °F 32.7 °F 30.6 in South 0.9 mph 5 mph 89% 0 in 18 W/m2
07:53 35.6 °F 32.7 °F 30.6 in NW 2 mph 4 mph 89% 0 in 19 W/m2
07:58 35.6 °F 32.7 °F 30.6 in WSW 0.9 mph 4 mph 89% 0 in 21 W/m2
08:03 35.6 °F 32.7 °F 30.6 in NW 2.9 mph 3 mph 89% 0 in 25 W/m2
08:08 35.6 °F 32.9 °F 30.6 in NNW 2.9 mph 3 mph 90% 0 in 26 W/m2
08:13 35.8 °F 33.1 °F 30.6 in ESE 2 mph 4 mph 90% 0 in 30 W/m2
08:18 35.8 °F 33.1 °F 30.6 in NE 0.9 mph 1 mph 90% 0 in 35 W/m2
08:23 36 °F 33.1 °F 30.6 in NE 0.9 mph 4 mph 89% 0 in 37 W/m2
08:28 36 °F 33.1 °F 30.6 in NE 0.9 mph 2 mph 89% 0 in 39 W/m2
08:33 36.1 °F 33.3 °F 30.6 in NNW 2 mph 4 mph 89% 0 in 47 W/m2
08:38 36.3 °F 33.6 °F 30.6 in ESE 0.9 mph 3 mph 90% 0 in 44 W/m2
08:53 37 °F 34.2 °F 30.6 in West 0.9 mph 3 mph 89% 0 in 139 W/m2
08:58 37.2 °F 34.3 °F 30.6 in NW 2 mph 4 mph 89% 0 in 155 W/m2
09:03 37.6 °F 34.7 °F 30.6 in NNW 0.9 mph 4 mph 89% 0 in 171 W/m2
09:08 37.9 °F 34.7 °F 30.6 in NNW 2 mph 4 mph 88% 0 in 162 W/m2
09:13 38.1 °F 34.9 °F 30.6 in Calm   2 mph 88% 0 in 130 W/m2
09:18 38.5 °F 35.2 °F 30.6 in East 2 mph 3 mph 88% 0 in 98 W/m2
09:23 38.8 °F 35.2 °F 30.6 in SE 2 mph 2 mph 87% 0 in 195 W/m2
09:28 39.2 °F 35.6 °F 30.6 in North 0.9 mph 2 mph 87% 0 in 76 W/m2
09:33 39.6 °F 36 °F 30.6 in NE 0.9 mph 5 mph 87% 0 in 246 W/m2
09:38 39.9 °F 36.1 °F 30.6 in Calm   2 mph 86% 0 in 255 W/m2
09:43 40.5 °F 36.7 °F 30.6 in NE 0.9 mph 3 mph 86% 0 in 267 W/m2
09:48 40.8 °F 36.7 °F 30.6 in North 2 mph 7 mph 85% 0 in 278 W/m2
09:53 41.4 °F 37.2 °F 30.7 in ESE 2 mph 9 mph 85% 0 in 301 W/m2
09:58 41.7 °F 36.9 °F 30.6 in East 2.9 mph 4 mph 83% 0 in 313 W/m2
10:03 42.1 °F 37.2 °F 30.6 in East 4.9 mph 9 mph 83% 0 in 327 W/m2
10:08 42.4 °F 37.4 °F 30.7 in ENE 6 mph 12 mph 82% 0 in 336 W/m2
10:13 42.4 °F 37 °F 30.7 in NE 4 mph 8 mph 81% 0 in 350 W/m2
10:18 42.6 °F 36.9 °F 30.6 in ENE 6 mph 10 mph 80% 0 in 367 W/m2
10:23 42.4 °F 36.7 °F 30.7 in North 2 mph 6 mph 80% 0 in 369 W/m2
10:28 42.6 °F 37.2 °F 30.6 in NNW 4 mph 9 mph 81% 0 in 378 W/m2
10:33 43.2 °F 37.4 °F 30.7 in ENE 8.9 mph 13 mph 80% 0 in 394 W/m2
10:38 43.2 °F 37 °F 30.7 in ENE 8.1 mph 8 mph 79% 0 in 381 W/m2
10:43 43.2 °F 37 °F 30.7 in ESE 4 mph 13 mph 79% 0 in 410 W/m2
10:48 43.2 °F 37 °F 30.7 in ENE 4.9 mph 6 mph 79% 0 in 418 W/m2
10:53 43.5 °F 37.4 °F 30.7 in East 4 mph 12 mph 79% 0 in 427 W/m2
10:58 43.9 °F 37.4 °F 30.7 in West 2 mph 8 mph 78% 0 in 436 W/m2
11:03 44.1 °F 37.4 °F 30.7 in SSE 4 mph 14 mph 77% 0 in 443 W/m2
11:08 44.1 °F 37.4 °F 30.7 in East 4 mph 9 mph 77% 0 in 446 W/m2
11:13 44.1 °F 37.4 °F 30.7 in NE 4.9 mph 14 mph 77% 0 in 454 W/m2
11:18 44.4 °F 37.4 °F 30.7 in ENE 0.9 mph 7 mph 76% 0 in 452 W/m2
11:23 44.8 °F 37.4 °F 30.7 in ENE 2.9 mph 12 mph 75% 0 in 415 W/m2
11:28 45 °F 37.9 °F 30.7 in SSE 2 mph 5 mph 76% 0 in 369 W/m2
11:33 45.1 °F 37.4 °F 30.6 in NE 4 mph 9 mph 74% 0 in 221 W/m2
11:38 45 °F 37.6 °F 30.7 in NE 4 mph 7 mph 75% 0 in 200 W/m2
11:43 44.8 °F 37.4 °F 30.7 in ENE 4 mph 10 mph 75% 0 in 156 W/m2
11:48 44.8 °F 37.8 °F 30.6 in WNW 2.9 mph 6 mph 76% 0 in 308 W/m2
11:53 45 °F 38.1 °F 30.7 in NNW 4.9 mph 5 mph 77% 0 in 271 W/m2
11:58 45.3 °F 38.1 °F 30.6 in NE 2 mph 5 mph 76% 0 in 415 W/m2
12:03 45.3 °F 37.6 °F 30.6 in WSW 2.9 mph 8 mph 74% 0 in 490 W/m2
12:08 45.7 °F 37.6 °F 30.6 in NW 2.9 mph 9 mph 73% 0 in 454 W/m2
12:13 45.7 °F 37.6 °F 30.6 in NW 6 mph 6 mph 73% 0 in 517 W/m2
12:18 46 °F 37.9 °F 30.6 in ENE 2.9 mph 5 mph 73% 0 in 520 W/m2
12:28 46.4 °F 37.6 °F 30.6 in SE 2.9 mph 8 mph 71% 0 in 527 W/m2
12:38 47.1 °F 37.8 °F 30.6 in East 2.9 mph 10 mph 70% 0 in 540 W/m2
12:43 46.9 °F 37.2 °F 30.6 in North 2 mph 5 mph 69% 0 in 441 W/m2
12:48 46.6 °F 37.4 °F 30.6 in NNE 2 mph 5 mph 70% 0 in 128 W/m2
12:53 46.4 °F 37.2 °F 30.6 in ESE 2 mph 9 mph 70% 0 in 125 W/m2
12:58 46.6 °F 37 °F 30.6 in NNE 4.9 mph 5 mph 69% 0 in 81 W/m2
13:08 46.9 °F 37.2 °F 30.6 in East 2.9 mph 6 mph 69% 0 in 568 W/m2
13:13 47.1 °F 37.4 °F 30.6 in ENE 0.9 mph 3 mph 69% 0 in 519 W/m2
13:18 47.3 °F 37.2 °F 30.6 in SSE 2 mph 9 mph 68% 0 in 441 W/m2
13:23 47.7 °F 37.6 °F 30.6 in SSW 2.9 mph 9 mph 68% 0 in 167 W/m2
13:33 47.8 °F 37.4 °F 30.6 in NNW 4.9 mph 8 mph 67% 0 in 230 W/m2
13:38 47.8 °F 37.8 °F 30.6 in NE 2.9 mph 7 mph 68% 0 in 155 W/m2
13:43 47.8 °F 37.8 °F 30.6 in NNW 2 mph 10 mph 68% 0 in 149 W/m2
13:48 47.7 °F 37.2 °F 30.6 in West 2.9 mph 8 mph 67% 0 in 165 W/m2
13:53 47.7 °F 37.6 °F 30.6 in East 2.9 mph 8 mph 68% 0 in 153 W/m2
13:58 47.7 °F 37.2 °F 30.6 in NW 4 mph 9 mph 67% 0 in 151 W/m2
14:03 47.8 °F 37.4 °F 30.6 in North 4 mph 9 mph 67% 0 in 193 W/m2
14:08 47.8 °F 37.4 °F 30.6 in WSW 2 mph 6 mph 67% 0 in 146 W/m2
14:13 47.8 °F 37 °F 30.6 in East 2.9 mph 11 mph 66% 0 in 323 W/m2
14:18 47.8 °F 37 °F 30.6 in East 2 mph 4 mph 66% 0 in 186 W/m2
14:23 48.4 °F 37.6 °F 30.6 in ENE 4.9 mph 8 mph 66% 0 in 63 W/m2
14:28 48.4 °F 37.2 °F 30.6 in NNE 2.9 mph 12 mph 65% 0 in 209 W/m2
14:33 48.4 °F 37.2 °F 30.6 in ENE 2 mph 4 mph 65% 0 in 316 W/m2
14:38 48.7 °F 37 °F 30.6 in NW 8.1 mph 12 mph 64% 0 in 461 W/m2
14:43 49.1 °F 37 °F 30.6 in ENE 2 mph 9 mph 63% 0 in 448 W/m2
14:49 49.1 °F 37 °F 30.6 in East 8.1 mph 8 mph 63% 0 in 294 W/m2
14:54 48.7 °F 36.7 °F 30.6 in ESE 4 mph 8 mph 63% 0 in 213 W/m2
14:59 48.7 °F 36.7 °F 30.6 in ESE 2.9 mph 9 mph 63% 0 in 353 W/m2
15:04 48.9 °F 36.9 °F 30.6 in SE 8.1 mph 10 mph 63% 0 in 271 W/m2
15:09 48.9 °F 36.5 °F 30.6 in NW 4.9 mph 11 mph 62% 0 in 167 W/m2
15:14 48.9 °F 36.5 °F 30.6 in NNE 4 mph 11 mph 62% 0 in 134 W/m2
15:19 49.3 °F 37.2 °F 30.6 in West 2.9 mph 7 mph 63% 0 in 125 W/m2
15:24 49.5 °F 37 °F 30.6 in ENE 2.9 mph 11 mph 62% 0 in 195 W/m2
15:29 49.5 °F 36.5 °F 30.6 in NE 2 mph 10 mph 61% 0 in 327 W/m2
15:34 49.5 °F 36.5 °F 30.6 in ESE 0.9 mph 4 mph 61% 0 in 371 W/m2
15:39 49.6 °F 36.3 °F 30.6 in East 4 mph 10 mph 60% 0 in 237 W/m2
15:44 49.6 °F 36.3 °F 30.6 in ESE 0.9 mph 6 mph 60% 0 in 309 W/m2
15:49 49.6 °F 36 °F 30.6 in SSW 2.9 mph 12 mph 59% 0 in 246 W/m2
15:54 49.6 °F 36 °F 30.6 in Calm   7 mph 59% 0 in 220 W/m2
15:59 49.6 °F 36.3 °F 30.6 in NE 2.9 mph 5 mph 60% 0 in 272 W/m2
16:04 49.6 °F 36 °F 30.6 in WSW 2.9 mph 6 mph 59% 0 in 297 W/m2
16:09 49.6 °F 36 °F 30.6 in WSW 4 mph 6 mph 59% 0 in 281 W/m2
16:14 49.6 °F 36 °F 30.6 in NE 2 mph 6 mph 59% 0 in 294 W/m2
16:19 49.6 °F 35.4 °F 30.6 in North 4 mph 5 mph 58% 0 in 281 W/m2
16:24 49.6 °F 35.4 °F 30.6 in SE 2 mph 9 mph 58% 0 in 269 W/m2
16:29 49.5 °F 35.2 °F 30.6 in ESE 4 mph 6 mph 58% 0 in 207 W/m2
16:34 49.3 °F 35.6 °F 30.6 in ENE 4.9 mph 10 mph 59% 0 in 90 W/m2
16:39 48.9 °F 35.2 °F 30.6 in NNW 0.9 mph 7 mph 59% 0 in 39 W/m2
16:49 48.7 °F 35.4 °F 30.6 in North 0.9 mph 6 mph 60% 0 in 49 W/m2
16:54 48.7 °F 35.4 °F 30.6 in NE 0.9 mph 12 mph 60% 0 in 32 W/m2
16:59 48.6 °F 35.8 °F 30.6 in SSW 2 mph 5 mph 61% 0 in 26 W/m2
17:04 48.4 °F 35.6 °F 30.6 in ESE 0.9 mph 6 mph 61% 0 in 25 W/m2
17:09 48.2 °F 35.8 °F 30.6 in NE 4.9 mph 8 mph 62% 0 in 25 W/m2
17:14 48 °F 35.6 °F 30.6 in NNE 2.9 mph 6 mph 62% 0 in 23 W/m2
17:19 47.8 °F 35.8 °F 30.6 in ENE 4 mph 8 mph 63% 0 in 21 W/m2
17:24 47.7 °F 35.6 °F 30.6 in ENE 2.9 mph 7 mph 63% 0 in 21 W/m2
17:29 47.5 °F 36 °F 30.6 in ENE 4 mph 6 mph 64% 0 in 19 W/m2
17:34 47.3 °F 35.8 °F 30.6 in ESE 2.9 mph 5 mph 64% 0 in 19 W/m2
17:44 46.9 °F 35.8 °F 30.6 in East 2.9 mph 4 mph 65% 0 in 16 W/m2
17:49 46.9 °F 35.8 °F 30.6 in WNW 2 mph 9 mph 65% 0 in 14 W/m2
17:54 46.8 °F 36 °F 30.6 in NE 0.9 mph 4 mph 66% 0 in 12 W/m2
17:59 46.6 °F 35.8 °F 30.6 in ENE 0.9 mph 3 mph 66% 0 in 11 W/m2
18:04 46.2 °F 36 °F 30.6 in ENE 2.9 mph 4 mph 67% 0 in 9 W/m2
18:09 46.2 °F 36 °F 30.6 in Calm   4 mph 67% 0 in 7 W/m2
18:14 46 °F 35.8 °F 30.6 in ESE 8.9 mph 9 mph 67% 0 in 5 W/m2
18:19 45.9 °F 36 °F 30.6 in NE 2 mph 4 mph 68% 0 in 0 W/m2
18:24 45.9 °F 36 °F 30.6 in NW 9 mph 9 mph 68% 0 in 0 W/m2
18:29 45.7 °F 36.1 °F 30.6 in WNW 4 mph 6 mph 69% 0 in 0 W/m2
18:34 45.5 °F 36 °F 30.6 in South 2 mph 6 mph 69% 0 in 0 W/m2
18:39 45.3 °F 36.1 °F 30.6 in NNE 0.9 mph 3 mph 70% 0 in 0 W/m2
18:44 45.1 °F 36 °F 30.6 in NE 4 mph 4 mph 70% 0 in 0 W/m2
18:49 45 °F 36.1 °F 30.6 in Calm   3 mph 71% 0 in 0 W/m2
18:54 45 °F 36.1 °F 30.6 in NNW 0.9 mph 3 mph 71% 0 in 0 W/m2
18:59 44.8 °F 36 °F 30.6 in South 0.9 mph 3 mph 71% 0 in 0 W/m2
19:04 44.6 °F 36.1 °F 30.6 in SW 2 mph 3 mph 72% 0 in 0 W/m2
19:09 44.4 °F 36 °F 30.6 in East 2.9 mph 6 mph 72% 0 in 0 W/m2
19:14 44.2 °F 36.1 °F 30.6 in NE 4 mph 4 mph 73% 0 in 0 W/m2
19:19 44.2 °F 36.1 °F 30.6 in NE 4 mph 7 mph 73% 0 in 0 W/m2
19:24 44.2 °F 36.5 °F 30.6 in Calm   8 mph 74% 0 in 0 W/m2
19:29 44.1 °F 36.3 °F 30.6 in SE 0.9 mph 4 mph 74% 0 in 0 W/m2
19:34 44.1 °F 36.3 °F 30.6 in NE 0.9 mph 8 mph 74% 0 in 0 W/m2
19:39 43.9 °F 36.5 °F 30.6 in ENE 2 mph 6 mph 75% 0 in 0 W/m2
19:49 43.9 °F 36.5 °F 30.6 in ENE 2 mph 6 mph 75% 0 in 0 W/m2
19:54 43.7 °F 36.3 °F 30.6 in SE 0.9 mph 3 mph 75% 0 in 0 W/m2
19:59 43.5 °F 36.5 °F 30.6 in East 0.9 mph 2 mph 76% 0 in 0 W/m2
20:05 43.3 °F 36.3 °F 30.6 in Calm   3 mph 76% 0 in 0 W/m2
20:10 43.3 °F 36.3 °F 30.6 in ESE 2.9 mph 5 mph 76% 0 in 0 W/m2
20:15 43.3 °F 36.3 °F 30.6 in ENE 0.9 mph 5 mph 76% 0 in 0 W/m2
20:20 43.2 °F 36.1 °F 30.6 in East 0.9 mph 5 mph 76% 0 in 0 W/m2
20:30 43 °F 36.3 °F 30.6 in East 2.9 mph 4 mph 77% 0 in 0 W/m2
20:35 43 °F 36.3 °F 30.6 in SE 2 mph 7 mph 77% 0 in 0 W/m2
20:40 43 °F 36.3 °F 30.6 in SE 2 mph 3 mph 77% 0 in 0 W/m2
20:45 42.8 °F 36.1 °F 30.6 in NE 0.9 mph 3 mph 77% 0 in 0 W/m2
20:50 42.6 °F 36 °F 30.6 in Calm   7 mph 77% 0 in 0 W/m2
20:55 42.6 °F 36.3 °F 30.6 in ESE 0.9 mph 5 mph 78% 0 in 0 W/m2
21:00 42.4 °F 36.1 °F 30.6 in ENE 0.9 mph 3 mph 78% 0 in 0 W/m2
21:10 42.4 °F 36.1 °F 30.6 in East 0.9 mph 3 mph 78% 0 in 0 W/m2
21:15 42.3 °F 36 °F 30.6 in WSW 0.9 mph 2 mph 78% 0 in 0 W/m2
21:30 42.1 °F 36 °F 30.6 in ENE 2.9 mph 5 mph 79% 0 in 0 W/m2
21:35 42.1 °F 36 °F 30.6 in ENE 0.9 mph 6 mph 79% 0 in 0 W/m2
21:40 41.9 °F 35.8 °F 30.6 in NE 2 mph 3 mph 79% 0 in 0 W/m2
21:45 41.7 °F 35.8 °F 30.6 in East 2 mph 3 mph 79% 0 in 0 W/m2
21:50 41.7 °F 35.8 °F 30.6 in Calm   2 mph 79% 0 in 0 W/m2
21:55 41.5 °F 35.8 °F 30.6 in Calm   3 mph 80% 0 in 0 W/m2
22:00 41.5 °F 35.8 °F 30.6 in Calm   3 mph 80% 0 in 0 W/m2
22:05 41.4 °F 35.6 °F 30.6 in NNW 0.9 mph 2 mph 80% 0 in 0 W/m2
22:10 41.2 °F 35.4 °F 30.6 in Calm   3 mph 80% 0 in 0 W/m2
22:15 41.2 °F 35.4 °F 30.6 in Calm   2 mph 80% 0 in 0 W/m2
22:25 40.8 °F 35.1 °F 30.6 in ESE 2 mph 2 mph 80% 0 in 0 W/m2
22:30 40.8 °F 35.4 °F 30.6 in Calm   3 mph 81% 0 in 0 W/m2
22:35 40.6 °F 35.2 °F 30.6 in SE 0.9 mph 3 mph 81% 0 in 0 W/m2
22:40 40.6 °F 35.2 °F 30.6 in ENE 2 mph 4 mph 81% 0 in 0 W/m2
22:45 40.5 °F 35.1 °F 30.6 in ESE 0.9 mph 2 mph 81% 0 in 0 W/m2
22:50 40.5 °F 35.1 °F 30.6 in ENE 2 mph 3 mph 81% 0 in 0 W/m2
22:55 40.5 °F 35.4 °F 30.6 in Calm   4 mph 82% 0 in 0 W/m2
23:00 40.5 °F 35.4 °F 30.6 in ENE 0.9 mph 2 mph 82% 0 in 0 W/m2
23:10 39.9 °F 34.9 °F 30.6 in Calm   1 mph 82% 0 in 0 W/m2
23:15 39.7 °F 34.7 °F 30.6 in East 0.9 mph 2 mph 82% 0 in 0 W/m2
23:25 39.2 °F 34.5 °F 30.6 in Calm   2 mph 83% 0 in 0 W/m2
23:30 38.8 °F 34.2 °F 30.6 in Calm     83% 0 in 0 W/m2
23:35 38.5 °F 34.2 °F 30.6 in Calm   1 mph 84% 0 in 0 W/m2
23:40 38.5 °F 34.3 °F 30.6 in ENE 0.9 mph 4 mph 85% 0 in 0 W/m2
23:50 38.5 °F 34.3 °F 30.6 in Calm   2 mph 85% 0 in 0 W/m2
23:55 38.5 °F 34.3 °F 30.6 in ESE 0.9 mph 3 mph 85% 0 in 0 W/m2
Juneau County Weather
Compliments of Weather Underground - 4 mb